Aeroporto :
LOGIN :

Iscrizione | Disclaimer

   EN    FR    IT 

 










Sommario :    VFR   VFR Marginale   IFR   IFR Intensivo   IFR Molto Intensivo
Visibilità : 
Base nubi : 
>= 8 km
>= 3000ft
5 / 8 km
1000 / 3000 ft
1500m / 5 km
500 / 1000 ft
800 / 1500m
200 / 500 ft
< 800m
< 200 ft
Simboli :   Temporali  Nebbia  Neve Forte  Precipitazioni Forti  Vento > 20 kt
SIGMETs :   Varie  Temporali  Ghiacco  Turbolenza  Onda orograficha  Ceneri Vulcaniche






- Altitudine del aeroporto : 1247 ft
- Codice IATA : PRG


LKPR - Praha Ruzyne

ULTIMO METAR :
  • 220700Z 09003KT 9999 OVC015 07/05 Q1011 BECMG OVC018

METARs OBSOLETI :
  • 220630Z 11003KT 070V150 9999 OVC014 07/05 Q1011 NOSIG
  • 220600Z VRB02KT 9999 OVC012 06/05 Q1011 NOSIG
  • 220530Z 12004KT 9999 OVC010 06/05 Q1011 NOSIG
  • 220500Z 12003KT 080V180 9999 OVC009 06/05 Q1011 NOSIG
  • 220430Z 13004KT 080V160 9999 OVC009 06/05 Q1010 NOSIG
  • 220400Z 10003KT 070V210 9999 OVC009 06/05 Q1010 NOSIG

TAF TAF LKPR
Valido dal 22 a 06 ore il 23 a 12 ore UTC


220500Z 2206/2312 12006KT 9999 SCT006 BKN013
TEMPO 2206/2208 5000 BR BKN005
BECMG 2209/2211 SCT005 OVC016
BECMG 2211/2213 12004KT 9999 BKN030
TEMPO 2221/2308 5000 BR SCT006 SCT030



MetMap, La meteo Aeronautica in un colpo d'occhio ! - Copyright ORBIFLY Dicembre 2007 - Disclaimer

ORBIFLY MET'MAP TEAM :

Programmazione e sviluppo : Alexandra Zaïnal
Concezione e sviluppo : Baudouin d'Aumeries
Co-Programmazione e sviluppo : Marc-Olivier Méhu
Supporto tecnico e logistico : Manuel Goepfert
Aiuto per la traduzione : Arnaldo La Scala

Contatto : metmap@orbifly.com




FONTI E CREDITI :

   NOAA